Nokomis, Canada
Current Conditions -  °F | °C
As of 1:00 PM on Friday 21 Nov 2014 (Local Time) from CYQR Reporting Station
Broken Clouds Broken Clouds  
Wind Chill: 29°   Ceiling: 1600
Heat Index: 39°   Visibility: 15mi
Dew Point: 34°   Wind: 22mph
Humidity: 81%   Direction: 280°W
Pressure: 29.51"   Gusts: 28mph
Location:  51.52°N, 105.02°W
Report Text: CYQR 211900Z 28019G24KT 15SM SCT011 BKN016 BKN100 04/01 A2951 RMK SC3SC3AC1 SLP023
Loading
Personal Weather Stations






























Interactive Weather Map New forecast layout! Learn more

10-Day Weather Forecast

Advertisements
Track Severe Weather on mobile